createdAt,value
2019-01-24T00:01:04.033Z,-2.20
2019-01-24T00:03:33.304Z,-2.20
2019-01-24T00:06:02.245Z,-2.20
2019-01-24T00:08:31.184Z,-2.20
2019-01-24T00:11:00.465Z,-2.20
2019-01-24T00:13:29.421Z,-2.20
2019-01-24T00:15:58.511Z,-2.20
2019-01-24T00:18:27.715Z,-2.20
2019-01-24T00:20:57.071Z,-2.20
2019-01-24T00:23:26.001Z,-2.20
2019-01-24T00:25:54.927Z,-2.20
2019-01-24T00:28:24.367Z,-2.20
2019-01-24T00:30:53.709Z,-2.20
2019-01-24T00:33:22.654Z,-2.20
2019-01-24T00:35:51.762Z,-2.20
2019-01-24T00:38:20.720Z,-2.20
2019-01-24T00:40:49.666Z,-2.20
2019-01-24T00:43:19.213Z,-2.20
2019-01-24T00:45:48.398Z,-2.30
2019-01-24T00:48:17.603Z,-2.20
2019-01-24T00:50:46.548Z,-2.30
2019-01-24T00:53:15.499Z,-2.30
2019-01-24T00:55:44.686Z,-2.20
2019-01-24T00:58:13.822Z,-2.10
2019-01-24T01:00:43.038Z,-2.20
2019-01-24T01:03:12.007Z,-2.20
2019-01-24T01:05:41.051Z,-2.20
2019-01-24T01:08:11.377Z,-2.20
2019-01-24T01:10:40.390Z,-2.20
2019-01-24T01:13:09.429Z,-2.20
2019-01-24T01:15:38.852Z,-2.20
2019-01-24T01:18:07.990Z,-2.20
2019-01-24T01:20:37.245Z,-2.20
2019-01-24T01:23:06.266Z,-2.20
2019-01-24T01:25:35.328Z,-2.20
2019-01-24T01:28:04.534Z,-2.20
2019-01-24T01:30:33.570Z,-2.20
2019-01-24T01:33:02.890Z,-2.10
2019-01-24T01:35:32.243Z,-2.10
2019-01-24T01:38:01.273Z,-2.10
2019-01-24T01:40:30.380Z,-2.10
2019-01-24T01:42:59.499Z,-2.10
2019-01-24T01:45:28.839Z,-2.10
2019-01-24T01:47:58.305Z,-2.10
2019-01-24T01:50:27.594Z,-2.10
2019-01-24T01:52:56.568Z,-2.00
2019-01-24T01:55:25.799Z,-2.00
2019-01-24T01:57:54.819Z,-2.00
2019-01-24T02:00:24.851Z,-2.10
2019-01-24T02:02:53.831Z,-2.10
2019-01-24T02:05:23.319Z,-2.00
2019-01-24T02:07:52.249Z,-2.10
2019-01-24T02:10:22.833Z,-2.00
2019-01-24T02:12:52.399Z,-2.00
2019-01-24T02:15:22.025Z,-2.00
2019-01-24T02:17:51.434Z,-2.00
2019-01-24T02:20:22.167Z,-2.10
2019-01-24T02:22:51.371Z,-2.10
2019-01-24T02:25:20.618Z,-2.00
2019-01-24T02:27:49.733Z,-2.10
2019-01-24T02:30:21.411Z,-2.10
2019-01-24T02:32:50.542Z,-2.10
2019-01-24T02:35:19.956Z,-2.10
2019-01-24T02:37:49.053Z,-2.00
2019-01-24T02:40:18.077Z,-2.10
2019-01-24T02:42:47.349Z,-2.10
2019-01-24T02:45:17.894Z,-2.00
2019-01-24T02:47:49.951Z,-2.00
2019-01-24T02:50:20.115Z,-2.10
2019-01-24T02:52:49.340Z,-2.00
2019-01-24T02:55:18.611Z,-2.00
2019-01-24T02:57:47.660Z,-2.00
2019-01-24T03:00:18.922Z,-2.10
2019-01-24T03:02:48.047Z,-2.00
2019-01-24T03:05:18.828Z,-2.00
2019-01-24T03:07:48.359Z,-2.00
2019-01-24T03:10:17.954Z,-2.10
2019-01-24T03:12:47.035Z,-2.00
2019-01-24T03:15:17.624Z,-2.00
2019-01-24T03:17:46.668Z,-2.00
2019-01-24T03:20:15.911Z,-2.00
2019-01-24T03:22:45.432Z,-2.00
2019-01-24T03:25:15.583Z,-2.00
2019-01-24T03:27:44.578Z,-2.00
2019-01-24T03:30:15.937Z,-2.00
2019-01-24T03:32:45.279Z,-2.00
2019-01-24T03:35:17.117Z,-2.00
2019-01-24T03:37:46.471Z,-2.00
2019-01-24T03:40:16.628Z,-2.00
2019-01-24T03:42:45.638Z,-2.00
2019-01-24T03:45:15.654Z,-2.10
2019-01-24T03:47:44.840Z,-2.10
2019-01-24T03:50:16.562Z,-2.10
2019-01-24T03:52:45.674Z,-2.10
2019-01-24T03:55:15.911Z,-2.10
2019-01-24T03:57:45.049Z,-2.10
2019-01-24T04:00:19.710Z,-2.10
2019-01-24T04:02:49.100Z,-2.10
2019-01-24T04:05:18.255Z,-2.20
2019-01-24T04:07:47.265Z,-2.20
2019-01-24T04:10:17.823Z,-2.10
2019-01-24T04:12:46.872Z,-2.10
2019-01-24T04:15:18.163Z,-2.10
2019-01-24T04:17:47.251Z,-2.10
2019-01-24T04:20:16.757Z,-2.10
2019-01-24T04:22:45.847Z,-2.10
2019-01-24T04:25:15.603Z,-2.20
2019-01-24T04:27:44.622Z,-2.20
2019-01-24T04:30:16.053Z,-2.20
2019-01-24T04:32:45.159Z,-2.20
2019-01-24T04:35:19.629Z,-2.20
2019-01-24T04:37:45.205Z,-2.20
2019-01-24T04:40:15.963Z,-2.20
2019-01-24T04:42:45.071Z,-2.10
2019-01-24T04:45:15.291Z,-2.10
2019-01-24T04:47:44.388Z,-2.10
2019-01-24T04:50:14.997Z,-2.10
2019-01-24T04:52:44.098Z,-2.10
2019-01-24T04:55:14.828Z,-2.10
2019-01-24T04:57:43.899Z,-2.10
2019-01-24T05:00:18.999Z,-2.10
2019-01-24T05:02:48.037Z,-2.10
2019-01-24T05:05:16.989Z,-2.10
2019-01-24T05:07:46.115Z,-2.20
2019-01-24T05:10:15.259Z,-2.20
2019-01-24T05:12:44.367Z,-2.20
2019-01-24T05:15:13.666Z,-2.20
2019-01-24T05:17:42.692Z,-2.30
2019-01-24T05:20:12.601Z,-2.20
2019-01-24T05:22:41.620Z,-2.30
2019-01-24T05:25:12.342Z,-2.20
2019-01-24T05:27:41.296Z,-2.20
2019-01-24T05:30:17.611Z,-2.20
2019-01-24T05:32:46.699Z,-2.20
2019-01-24T05:35:15.807Z,-2.20
2019-01-24T05:37:45.106Z,-2.30
2019-01-24T05:40:14.491Z,-2.30
2019-01-24T05:42:43.647Z,-2.30
2019-01-24T05:45:12.925Z,-2.30
2019-01-24T05:47:41.950Z,-2.30
2019-01-24T05:50:11.435Z,-2.30
2019-01-24T05:52:40.998Z,-2.30
2019-01-24T05:55:10.305Z,-2.30
2019-01-24T05:57:39.503Z,-2.40
2019-01-24T06:00:11.206Z,-2.40
2019-01-24T06:02:40.508Z,-2.40
2019-01-24T06:05:10.915Z,-2.40
2019-01-24T06:07:40.039Z,-2.40
2019-01-24T06:10:12.228Z,-2.40
2019-01-24T06:12:41.285Z,-2.50
2019-01-24T06:15:12.795Z,-2.40
2019-01-24T06:17:41.825Z,-2.50
2019-01-24T06:20:11.253Z,-2.50
2019-01-24T06:22:40.319Z,-2.50
2019-01-24T06:25:10.344Z,-2.50
2019-01-24T06:27:39.383Z,-2.50
2019-01-24T06:30:14.510Z,-2.40
2019-01-24T06:32:43.863Z,-2.40
2019-01-24T06:35:13.138Z,-2.30
2019-01-24T06:37:42.232Z,-2.40
2019-01-24T06:40:12.616Z,-2.40
2019-01-24T06:42:41.723Z,-2.50
2019-01-24T06:45:16.003Z,-2.50
2019-01-24T06:47:45.295Z,-2.50
2019-01-24T06:50:14.697Z,-2.50
2019-01-24T06:52:43.788Z,-2.50
2019-01-24T06:55:19.934Z,-2.50
2019-01-24T06:57:48.981Z,-2.50
2019-01-24T07:00:18.524Z,-2.50
2019-01-24T07:02:47.910Z,-2.50
2019-01-24T07:05:17.175Z,-2.50
2019-01-24T07:07:46.522Z,-2.60
2019-01-24T07:10:17.224Z,-2.50
2019-01-24T07:12:46.192Z,-2.50
2019-01-24T07:15:17.912Z,-2.60
2019-01-24T07:17:47.046Z,-2.60
2019-01-24T07:20:16.546Z,-2.60
2019-01-24T07:22:45.600Z,-2.60
2019-01-24T07:25:17.355Z,-2.60
2019-01-24T07:27:46.767Z,-2.60
2019-01-24T07:30:16.667Z,-2.50
2019-01-24T07:32:45.767Z,-2.50
2019-01-24T07:35:15.961Z,-2.50
2019-01-24T07:37:44.981Z,-2.50
2019-01-24T07:40:15.674Z,-2.40
2019-01-24T07:42:44.789Z,-2.40
2019-01-24T07:45:25.545Z,-2.40
2019-01-24T07:47:54.744Z,-2.40
2019-01-24T07:50:23.920Z,-2.40
2019-01-24T07:52:53.039Z,-2.50
2019-01-24T07:55:22.006Z,-2.40
2019-01-24T07:57:54.190Z,-2.40
2019-01-24T08:00:24.644Z,-2.40
2019-01-24T08:02:53.860Z,-2.40
2019-01-24T08:05:23.110Z,-2.30
2019-01-24T08:07:52.158Z,-2.30
2019-01-24T08:10:21.468Z,-2.30
2019-01-24T08:12:50.491Z,-2.30
2019-01-24T08:15:20.242Z,-2.20
2019-01-24T08:17:50.201Z,-2.20
2019-01-24T08:20:24.385Z,-2.20
2019-01-24T08:22:53.759Z,-2.10
2019-01-24T08:25:22.947Z,-2.10
2019-01-24T08:27:54.340Z,-2.10
2019-01-24T08:30:28.676Z,-2.10
2019-01-24T08:32:57.690Z,-2.10
2019-01-24T08:35:26.647Z,-2.00
2019-01-24T08:37:55.764Z,-2.00
2019-01-24T08:40:24.924Z,-2.00
2019-01-24T08:42:54.045Z,-2.00
2019-01-24T08:45:23.057Z,-2.00
2019-01-24T08:47:52.315Z,-2.10
2019-01-24T08:50:22.395Z,-2.10
2019-01-24T08:52:51.611Z,-2.00
2019-01-24T08:55:23.610Z,-2.00
2019-01-24T08:57:52.710Z,-2.00
2019-01-24T09:00:22.079Z,-2.00
2019-01-24T09:02:51.928Z,-2.00
2019-01-24T09:05:21.012Z,-1.90
2019-01-24T09:07:50.140Z,-1.90
2019-01-24T09:10:22.484Z,-1.90
2019-01-24T09:12:51.523Z,-1.90
2019-01-24T09:15:20.523Z,-1.90
2019-01-24T09:17:49.584Z,-1.90
2019-01-24T09:20:18.865Z,-1.90
2019-01-24T09:22:54.864Z,-1.90
2019-01-24T09:25:18.898Z,-1.90
2019-01-24T09:27:48.009Z,-1.80
2019-01-24T09:30:19.559Z,-1.80
2019-01-24T09:32:51.062Z,-1.90
2019-01-24T09:35:20.097Z,-2.00
2019-01-24T09:37:49.070Z,-1.90
2019-01-24T09:40:18.538Z,-1.90
2019-01-24T09:42:47.586Z,-1.90
2019-01-24T09:45:24.349Z,-1.90
2019-01-24T09:47:55.303Z,-1.80
2019-01-24T09:50:24.659Z,-1.70
2019-01-24T09:52:53.794Z,-1.70
2019-01-24T09:55:23.285Z,-1.70
2019-01-24T09:57:52.419Z,-1.70
2019-01-24T10:00:23.840Z,-1.70
2019-01-24T10:02:53.055Z,-1.70
2019-01-24T10:05:22.401Z,-1.70
2019-01-24T10:07:51.983Z,-1.70
2019-01-24T10:10:22.356Z,-1.70
2019-01-24T10:12:52.064Z,-1.70
2019-01-24T10:15:21.691Z,-1.70
2019-01-24T10:17:50.735Z,-1.80
2019-01-24T10:20:21.268Z,-1.70
2019-01-24T10:22:50.309Z,-1.70
2019-01-24T10:25:37.202Z,-1.60
2019-01-24T10:28:06.703Z,-1.60
2019-01-24T10:30:42.352Z,-1.50
2019-01-24T10:33:06.910Z,-1.40
2019-01-24T10:35:35.923Z,-1.40
2019-01-24T10:38:06.189Z,-1.40
2019-01-24T10:40:35.160Z,-1.30
2019-01-24T10:43:04.741Z,-1.30
2019-01-24T10:45:33.835Z,-1.20
2019-01-24T10:48:02.933Z,-1.20
2019-01-24T10:50:31.959Z,-1.20
2019-01-24T10:53:01.049Z,-1.20
2019-01-24T10:55:30.247Z,-1.20
2019-01-24T10:58:01.502Z,-1.10
2019-01-24T11:00:40.992Z,-1.20
2019-01-24T11:03:17.856Z,-1.10
2019-01-24T11:05:47.283Z,-1.30
2019-01-24T11:08:16.523Z,-1.30
2019-01-24T11:10:45.605Z,-1.40
2019-01-24T11:13:14.640Z,-1.40
2019-01-24T11:15:43.751Z,-1.40
2019-01-24T11:18:12.724Z,-1.30
2019-01-24T11:20:41.786Z,-1.30
2019-01-24T11:23:10.827Z,-1.30
2019-01-24T11:25:40.182Z,-1.30
2019-01-24T11:28:09.295Z,-1.30
2019-01-24T11:30:38.675Z,-1.40
2019-01-24T11:33:08.511Z,-1.40
2019-01-24T11:35:37.875Z,-1.40
2019-01-24T11:38:07.355Z,-1.40
2019-01-24T11:40:36.505Z,-1.40
2019-01-24T11:43:06.392Z,-1.50
2019-01-24T11:45:37.888Z,-1.40
2019-01-24T11:48:07.067Z,-1.40
2019-01-24T11:50:36.158Z,-1.40
2019-01-24T11:53:05.834Z,-1.40
2019-01-24T11:55:37.425Z,-1.40
2019-01-24T11:58:07.288Z,-1.40
2019-01-24T12:00:41.766Z,-1.40
2019-01-24T12:03:10.831Z,-1.40
2019-01-24T12:05:40.111Z,-1.50
2019-01-24T12:08:09.843Z,-1.60
2019-01-24T12:10:38.969Z,-1.70
2019-01-24T12:13:08.407Z,-1.70
2019-01-24T12:15:37.414Z,-1.80
2019-01-24T12:18:06.564Z,-1.80
2019-01-24T12:20:35.566Z,-1.80
2019-01-24T12:23:05.031Z,-1.90
2019-01-24T12:25:33.978Z,-1.90
2019-01-24T12:28:03.411Z,-1.90
2019-01-24T12:30:34.200Z,-1.90
2019-01-24T12:33:03.631Z,-1.80
2019-01-24T12:35:32.799Z,-1.80
2019-01-24T12:38:01.770Z,-1.80
2019-01-24T12:40:30.728Z,-1.70
2019-01-24T12:42:59.709Z,-1.70
2019-01-24T12:45:33.867Z,-1.70
2019-01-24T12:48:02.975Z,-1.80
2019-01-24T12:50:31.993Z,-1.90
2019-01-24T12:53:01.039Z,-2.00
2019-01-24T12:55:30.139Z,-2.00
2019-01-24T12:57:59.166Z,-2.10
2019-01-24T13:00:30.669Z,-2.10
2019-01-24T13:02:59.631Z,-2.10
2019-01-24T13:05:28.672Z,-2.10
2019-01-24T13:07:57.763Z,-2.10
2019-01-24T13:10:27.547Z,-2.10
2019-01-24T13:12:56.645Z,-2.10
2019-01-24T13:15:27.863Z,-2.20
2019-01-24T13:17:57.209Z,-2.20
2019-01-24T13:20:26.323Z,-2.20
2019-01-24T13:22:55.363Z,-2.20
2019-01-24T13:25:26.771Z,-2.20
2019-01-24T13:27:55.767Z,-2.20
2019-01-24T13:30:27.177Z,-2.20
2019-01-24T13:32:56.503Z,-2.20
2019-01-24T13:35:25.609Z,-2.20
2019-01-24T13:37:54.568Z,-2.20
2019-01-24T13:40:30.975Z,-2.20
2019-01-24T13:43:01.473Z,-2.20
2019-01-24T13:45:35.771Z,-2.20
2019-01-24T13:48:05.764Z,-2.20
2019-01-24T13:50:34.851Z,-2.20
2019-01-24T13:53:03.943Z,-2.30
2019-01-24T13:55:33.624Z,-2.30
2019-01-24T13:58:04.398Z,-2.30
2019-01-24T14:00:35.674Z,-2.30
2019-01-24T14:03:42.029Z,-2.30
2019-01-24T14:06:08.407Z,-2.30
2019-01-24T14:08:37.401Z,-2.20
2019-01-24T14:11:06.686Z,-2.20
2019-01-24T14:13:35.902Z,-2.30
2019-01-24T14:16:05.089Z,-2.30
2019-01-24T14:18:34.198Z,-2.30
2019-01-24T14:21:03.393Z,-2.30
2019-01-24T14:23:32.399Z,-2.20
2019-01-24T14:26:01.354Z,-2.30
2019-01-24T14:28:30.692Z,-2.30
2019-01-24T14:30:59.730Z,-2.40
2019-01-24T14:33:28.683Z,-2.40
2019-01-24T14:35:58.116Z,-2.40
2019-01-24T14:38:27.441Z,-2.50
2019-01-24T14:40:56.422Z,-2.40
2019-01-24T14:43:25.396Z,-2.40
2019-01-24T14:45:54.407Z,-2.50
2019-01-24T14:48:23.391Z,-2.50
2019-01-24T14:50:52.435Z,-2.50
2019-01-24T14:53:21.515Z,-2.50
2019-01-24T14:55:50.485Z,-2.50
2019-01-24T14:58:19.423Z,-2.60
2019-01-24T15:00:54.886Z,-2.60
2019-01-24T15:03:24.002Z,-2.60
2019-01-24T15:05:53.298Z,-2.60
2019-01-24T15:08:22.560Z,-2.60
2019-01-24T15:10:51.543Z,-2.60
2019-01-24T15:13:20.899Z,-2.60
2019-01-24T15:15:50.126Z,-2.60
2019-01-24T15:18:19.086Z,-2.70
2019-01-24T15:20:48.499Z,-2.60
2019-01-24T15:23:17.859Z,-2.70
2019-01-24T15:25:46.967Z,-2.70
2019-01-24T15:28:15.931Z,-2.70
2019-01-24T15:30:44.895Z,-2.60
2019-01-24T15:33:13.928Z,-2.70
2019-01-24T15:35:42.930Z,-2.70
2019-01-24T15:38:12.022Z,-2.70
2019-01-24T15:40:41.066Z,-2.70
2019-01-24T15:43:10.393Z,-2.70
2019-01-24T15:45:39.885Z,-2.70
2019-01-24T15:48:09.363Z,-2.70
2019-01-24T15:50:38.587Z,-2.70
2019-01-24T15:53:07.699Z,-2.70
2019-01-24T15:55:36.786Z,-2.70
2019-01-24T15:58:06.414Z,-2.70
2019-01-24T16:00:35.550Z,-2.70
2019-01-24T16:03:05.055Z,-2.70
2019-01-24T16:05:34.089Z,-2.70
2019-01-24T16:08:02.947Z,-2.70
2019-01-24T16:10:32.064Z,-2.70
2019-01-24T16:13:01.083Z,-2.70
2019-01-24T16:15:34.782Z,-2.70
2019-01-24T16:18:04.724Z,-2.70
2019-01-24T16:20:33.872Z,-2.70
2019-01-24T16:23:03.215Z,-2.70
2019-01-24T16:25:32.967Z,-2.70
2019-01-24T16:28:02.062Z,-2.70
2019-01-24T16:30:32.387Z,-2.70
2019-01-24T16:33:01.882Z,-2.70
2019-01-24T16:35:31.857Z,-2.70
2019-01-24T16:38:01.043Z,-2.70
2019-01-24T16:40:30.269Z,-2.60
2019-01-24T16:42:59.643Z,-2.60
2019-01-24T16:45:29.607Z,-2.70
2019-01-24T16:47:58.673Z,-2.70
2019-01-24T16:50:28.090Z,-2.70
2019-01-24T16:52:57.157Z,-2.70
2019-01-24T16:55:26.384Z,-2.70
2019-01-24T16:57:55.647Z,-2.70
2019-01-24T17:00:39.579Z,-2.70
2019-01-24T17:03:08.730Z,-2.70
2019-01-24T17:05:38.055Z,-2.70
2019-01-24T17:08:07.634Z,-2.70
2019-01-24T17:10:36.786Z,-2.70
2019-01-24T17:13:07.475Z,-2.70
2019-01-24T17:15:36.582Z,-2.80
2019-01-24T17:18:06.010Z,-2.70
2019-01-24T17:20:38.918Z,-2.80
2019-01-24T17:23:08.212Z,-2.80
2019-01-24T17:25:37.207Z,-2.70
2019-01-24T17:28:06.415Z,-2.70
2019-01-24T17:30:35.759Z,-2.70
2019-01-24T17:33:06.646Z,-2.70
2019-01-24T17:35:35.984Z,-2.70
2019-01-24T17:38:05.290Z,-2.70
2019-01-24T17:40:34.393Z,-2.70
2019-01-24T17:43:04.233Z,-2.80
2019-01-24T17:45:33.782Z,-2.70
2019-01-24T17:48:03.190Z,-2.70
2019-01-24T17:50:33.196Z,-2.70
2019-01-24T17:53:02.239Z,-2.70
2019-01-24T17:55:36.801Z,-2.80
2019-01-24T17:58:07.867Z,-2.70
2019-01-24T18:00:38.445Z,-2.70
2019-01-24T18:03:07.812Z,-2.70
2019-01-24T18:05:37.249Z,-2.80
2019-01-24T18:08:07.058Z,-2.80
2019-01-24T18:10:36.064Z,-2.80
2019-01-24T18:13:05.602Z,-2.80
2019-01-24T18:15:35.079Z,-2.90
2019-01-24T18:18:06.099Z,-2.90
2019-01-24T18:20:35.494Z,-2.90
2019-01-24T18:23:05.307Z,-2.80
2019-01-24T18:25:34.302Z,-2.90
2019-01-24T18:28:03.626Z,-2.90
2019-01-24T18:30:32.651Z,-2.90
2019-01-24T18:33:01.762Z,-2.90
2019-01-24T18:35:32.182Z,-2.90
2019-01-24T18:38:01.567Z,-2.90
2019-01-24T18:40:31.129Z,-3.00
2019-01-24T18:43:00.387Z,-2.90
2019-01-24T18:45:32.366Z,-2.90
2019-01-24T18:48:01.494Z,-2.90
2019-01-24T18:50:30.940Z,-2.90
2019-01-24T18:53:00.167Z,-2.90
2019-01-24T18:55:29.344Z,-2.80
2019-01-24T18:57:58.411Z,-2.90
2019-01-24T19:00:39.129Z,-2.90
2019-01-24T19:03:09.251Z,-2.90
2019-01-24T19:05:38.976Z,-2.90
2019-01-24T19:08:08.222Z,-2.90
2019-01-24T19:10:37.431Z,-3.00
2019-01-24T19:13:07.766Z,-3.00
2019-01-24T19:15:37.103Z,-3.00
2019-01-24T19:18:09.793Z,-3.00
2019-01-24T19:20:39.067Z,-3.00
2019-01-24T19:23:08.556Z,-3.00
2019-01-24T19:25:37.585Z,-2.90
2019-01-24T19:28:08.035Z,-2.90
2019-01-24T19:30:37.042Z,-3.00
2019-01-24T19:33:06.814Z,-2.90
2019-01-24T19:35:35.850Z,-2.90
2019-01-24T19:38:05.506Z,-3.00
2019-01-24T19:40:34.614Z,-2.90
2019-01-24T19:43:03.651Z,-2.90
2019-01-24T19:45:32.655Z,-3.00
2019-01-24T19:48:01.693Z,-3.00
2019-01-24T19:50:31.930Z,-2.90
2019-01-24T19:53:00.964Z,-2.90
2019-01-24T19:55:30.266Z,-2.90
2019-01-24T19:57:59.335Z,-2.90
2019-01-24T20:00:30.084Z,-2.90
2019-01-24T20:02:59.339Z,-2.90
2019-01-24T20:05:28.632Z,-2.90
2019-01-24T20:07:57.700Z,-2.80
2019-01-24T20:10:28.271Z,-2.90
2019-01-24T20:12:57.606Z,-2.90
2019-01-24T20:15:28.684Z,-2.80
2019-01-24T20:17:57.791Z,-2.80
2019-01-24T20:20:27.013Z,-2.90
2019-01-24T20:22:56.244Z,-2.80
2019-01-24T20:25:27.326Z,-2.90
2019-01-24T20:27:56.744Z,-2.90
2019-01-24T20:30:27.437Z,-2.90
2019-01-24T20:32:58.087Z,-2.90
2019-01-24T20:35:38.888Z,-2.90
2019-01-24T20:38:08.511Z,-2.90
2019-01-24T20:40:37.625Z,-2.90
2019-01-24T20:43:08.851Z,-2.90
2019-01-24T20:45:38.031Z,-2.80
2019-01-24T20:48:07.248Z,-2.90
2019-01-24T20:50:37.067Z,-2.90
2019-01-24T20:53:06.200Z,-2.90
2019-01-24T20:55:35.253Z,-2.90
2019-01-24T20:58:05.144Z,-2.80
2019-01-24T21:00:34.346Z,-2.80
2019-01-24T21:03:03.447Z,-2.80
2019-01-24T21:05:32.609Z,-2.80
2019-01-24T21:08:01.865Z,-2.90
2019-01-24T21:10:30.955Z,-2.90
2019-01-24T21:12:59.928Z,-2.80
2019-01-24T21:15:28.883Z,-2.90
2019-01-24T21:17:58.189Z,-2.80
2019-01-24T21:20:27.839Z,-2.80
2019-01-24T21:22:56.947Z,-2.80
2019-01-24T21:25:26.183Z,-2.90
2019-01-24T21:27:55.133Z,-2.80
2019-01-24T21:30:26.641Z,-2.90
2019-01-24T21:32:55.594Z,-2.80
2019-01-24T21:35:24.667Z,-2.80
2019-01-24T21:37:53.631Z,-2.80
2019-01-24T21:40:22.767Z,-2.80
2019-01-24T21:42:52.015Z,-2.80
2019-01-24T21:45:23.620Z,-2.80
2019-01-24T21:47:52.991Z,-2.80
2019-01-24T21:50:23.375Z,-2.80
2019-01-24T21:52:52.772Z,-2.80
2019-01-24T21:55:22.352Z,-2.80
2019-01-24T21:57:51.439Z,-2.90
2019-01-24T22:00:22.621Z,-2.80
2019-01-24T22:02:51.735Z,-2.90
2019-01-24T22:05:21.755Z,-2.90
2019-01-24T22:07:50.914Z,-2.90
2019-01-24T22:10:22.221Z,-2.90
2019-01-24T22:12:51.308Z,-2.90
2019-01-24T22:15:22.275Z,-2.90
2019-01-24T22:17:51.782Z,-2.90
2019-01-24T22:20:20.903Z,-2.90
2019-01-24T22:22:50.246Z,-2.90
2019-01-24T22:25:30.165Z,-2.90
2019-01-24T22:27:59.278Z,-2.90
2019-01-24T22:30:39.512Z,-2.90
2019-01-24T22:33:08.631Z,-2.90
2019-01-24T22:35:37.767Z,-2.90
2019-01-24T22:38:07.251Z,-3.00
2019-01-24T22:40:36.309Z,-3.00
2019-01-24T22:43:06.415Z,-2.90
2019-01-24T22:45:35.576Z,-2.90
2019-01-24T22:48:06.117Z,-2.90
2019-01-24T22:50:35.155Z,-2.90
2019-01-24T22:53:04.699Z,-2.90
2019-01-24T22:55:33.653Z,-2.80
2019-01-24T22:58:02.667Z,-2.80
2019-01-24T23:00:54.887Z,-2.90
2019-01-24T23:03:44.903Z,-2.90
2019-01-24T23:06:14.034Z,-2.90
2019-01-24T23:08:43.112Z,-2.90
2019-01-24T23:11:12.220Z,-2.90
2019-01-24T23:13:41.244Z,-3.00
2019-01-24T23:16:10.371Z,-3.00
2019-01-24T23:18:39.389Z,-3.00
2019-01-24T23:21:08.527Z,-3.00
2019-01-24T23:23:37.594Z,-3.00
2019-01-24T23:26:06.990Z,-3.10
2019-01-24T23:28:35.977Z,-3.10
2019-01-24T23:31:06.348Z,-3.10
2019-01-24T23:33:35.431Z,-3.10
2019-01-24T23:36:04.987Z,-3.10
2019-01-24T23:38:34.345Z,-3.00
2019-01-24T23:41:03.456Z,-3.10
2019-01-24T23:43:32.733Z,-3.10
2019-01-24T23:46:01.930Z,-3.10
2019-01-24T23:48:31.504Z,-3.10
2019-01-24T23:51:00.946Z,-3.10
2019-01-24T23:53:30.058Z,-3.10
2019-01-24T23:55:59.045Z,-3.10
2019-01-24T23:58:28.011Z,-3.10
